<?xml version="1.0" encoding="UTF-8" standalone="no" ?>
<gpx xmlns="http://www.topografix.com/GPX/1/1" xmlns:xsi="http://www.w3.org/2001/XMLSchema-instance" xsi:schemaLocation="http://www.topografix.com/GPX/1/1 http://www.topografix.com/GPX/1/1/gpx.xsd" version="1.1" creator="VisuGPX - https://www.visugpx.com">
  <metadata>
    <name>Hte AZERGUES Départ THEIZE</name>
    <desc><![CDATA[superbe parcours un peu technique, alternant pistes, singles, pierriers...
relativement physique.]]></desc>
  </metadata>
  <trk>
    <name><![CDATA[THEYZE  Hte AZERGUES]]></name>
    <trkseg>
      <trkpt lat="45.93816" lon="4.6163">
        <ele>439.94</ele>
        <time>2014-07-19T08:24:50Z</time>
      </trkpt>
      <trkpt lat="45.93903" lon="4.61604">
        <ele>451.48</ele>
        <time>2014-07-19T08:25:59Z</time>
      </trkpt>
      <trkpt lat="45.93982" lon="4.6166">
        <ele>463.01</ele>
        <time>2014-07-19T08:27:11Z</time>
      </trkpt>
      <trkpt lat="45.9405" lon="4.6166">
        <ele>471.66</ele>
        <time>2014-07-19T08:28:59Z</time>
      </trkpt>
      <trkpt lat="45.94139" lon="4.61627">
        <ele>487.05</ele>
        <time>2014-07-19T08:30:19Z</time>
      </trkpt>
      <trkpt lat="45.94207" lon="4.61549">
        <ele>513.48</ele>
        <time>2014-07-19T08:33:10Z</time>
      </trkpt>
      <trkpt lat="45.94282" lon="4.61479">
        <ele>532.71</ele>
        <time>2014-07-19T08:35:30Z</time>
      </trkpt>
      <trkpt lat="45.94375" lon="4.6148">
        <ele>534.63</ele>
        <time>2014-07-19T08:36:06Z</time>
      </trkpt>
      <trkpt lat="45.94466" lon="4.61444">
        <ele>533.19</ele>
        <time>2014-07-19T08:36:28Z</time>
      </trkpt>
      <trkpt lat="45.94557" lon="4.61401">
        <ele>533.67</ele>
        <time>2014-07-19T08:36:46Z</time>
      </trkpt>
      <trkpt lat="45.94646" lon="4.61346">
        <ele>536.55</ele>
        <time>2014-07-19T08:37:12Z</time>
      </trkpt>
      <trkpt lat="45.94746" lon="4.61251">
        <ele>543.76</ele>
        <time>2014-07-19T08:38:21Z</time>
      </trkpt>
      <trkpt lat="45.94816" lon="4.61082">
        <ele>561.55</ele>
        <time>2014-07-19T08:39:58Z</time>
      </trkpt>
      <trkpt lat="45.94867" lon="4.60954">
        <ele>575.01</ele>
        <time>2014-07-19T08:41:24Z</time>
      </trkpt>
      <trkpt lat="45.94855" lon="4.60807">
        <ele>579.33</ele>
        <time>2014-07-19T08:42:18Z</time>
      </trkpt>
      <trkpt lat="45.94818" lon="4.60678">
        <ele>580.29</ele>
        <time>2014-07-19T08:43:00Z</time>
      </trkpt>
      <trkpt lat="45.94833" lon="4.60549">
        <ele>581.25</ele>
        <time>2014-07-19T08:43:26Z</time>
      </trkpt>
      <trkpt lat="45.94892" lon="4.60452">
        <ele>578.85</ele>
        <time>2014-07-19T08:43:39Z</time>
      </trkpt>
      <trkpt lat="45.94958" lon="4.60357">
        <ele>577.41</ele>
        <time>2014-07-19T08:43:52Z</time>
      </trkpt>
      <trkpt lat="45.9502" lon="4.60272">
        <ele>574.04</ele>
        <time>2014-07-19T08:44:55Z</time>
      </trkpt>
      <trkpt lat="45.95099" lon="4.60203">
        <ele>581.73</ele>
        <time>2014-07-19T08:45:54Z</time>
      </trkpt>
      <trkpt lat="45.95161" lon="4.60091">
        <ele>602.88</ele>
        <time>2014-07-19T08:48:07Z</time>
      </trkpt>
      <trkpt lat="45.95235" lon="4.59883">
        <ele>630.28</ele>
        <time>2014-07-19T08:51:30Z</time>
      </trkpt>
      <trkpt lat="45.95307" lon="4.59683">
        <ele>644.22</ele>
        <time>2014-07-19T08:53:12Z</time>
      </trkpt>
      <trkpt lat="45.95399" lon="4.59512">
        <ele>647.59</ele>
        <time>2014-07-19T08:54:08Z</time>
      </trkpt>
      <trkpt lat="45.95482" lon="4.59431">
        <ele>649.03</ele>
        <time>2014-07-19T08:54:43Z</time>
      </trkpt>
      <trkpt lat="45.95566" lon="4.59366">
        <ele>645.18</ele>
        <time>2014-07-19T08:55:03Z</time>
      </trkpt>
      <trkpt lat="45.95654" lon="4.59322">
        <ele>643.26</ele>
        <time>2014-07-19T08:55:18Z</time>
      </trkpt>
      <trkpt lat="45.95739" lon="4.59278">
        <ele>637.49</ele>
        <time>2014-07-19T08:55:31Z</time>
      </trkpt>
      <trkpt lat="45.95828" lon="4.59237">
        <ele>633.65</ele>
        <time>2014-07-19T08:55:44Z</time>
      </trkpt>
      <trkpt lat="45.95916" lon="4.59181">
        <ele>630.28</ele>
        <time>2014-07-19T08:56:01Z</time>
      </trkpt>
      <trkpt lat="45.96" lon="4.59124">
        <ele>626.92</ele>
        <time>2014-07-19T08:56:14Z</time>
      </trkpt>
      <trkpt lat="45.9608" lon="4.59053">
        <ele>622.11</ele>
        <time>2014-07-19T08:56:27Z</time>
      </trkpt>
      <trkpt lat="45.9615" lon="4.5898">
        <ele>607.69</ele>
        <time>2014-07-19T08:56:44Z</time>
      </trkpt>
      <trkpt lat="45.96236" lon="4.58936">
        <ele>608.65</ele>
        <time>2014-07-19T08:59:49Z</time>
      </trkpt>
      <trkpt lat="45.96332" lon="4.58891">
        <ele>606.73</ele>
        <time>2014-07-19T09:00:05Z</time>
      </trkpt>
      <trkpt lat="45.96428" lon="4.58876">
        <ele>605.77</ele>
        <time>2014-07-19T09:00:18Z</time>
      </trkpt>
      <trkpt lat="45.9652" lon="4.58877">
        <ele>605.29</ele>
        <time>2014-07-19T09:00:31Z</time>
      </trkpt>
      <trkpt lat="45.96611" lon="4.58872">
        <ele>601.92</ele>
        <time>2014-07-19T09:00:43Z</time>
      </trkpt>
      <trkpt lat="45.96703" lon="4.58824">
        <ele>595.19</ele>
        <time>2014-07-19T09:00:55Z</time>
      </trkpt>
      <trkpt lat="45.96788" lon="4.58779">
        <ele>590.39</ele>
        <time>2014-07-19T09:01:05Z</time>
      </trkpt>
      <trkpt lat="45.96879" lon="4.58721">
        <ele>590.39</ele>
        <time>2014-07-19T09:01:17Z</time>
      </trkpt>
      <trkpt lat="45.96961" lon="4.58662">
        <ele>589.91</ele>
        <time>2014-07-19T09:02:15Z</time>
      </trkpt>
      <trkpt lat="45.97039" lon="4.58576">
        <ele>593.27</ele>
        <time>2014-07-19T09:02:48Z</time>
      </trkpt>
      <trkpt lat="45.97117" lon="4.58468">
        <ele>599.04</ele>
        <time>2014-07-19T09:03:34Z</time>
      </trkpt>
      <trkpt lat="45.97204" lon="4.5842">
        <ele>600</ele>
        <time>2014-07-19T09:04:11Z</time>
      </trkpt>
      <trkpt lat="45.97298" lon="4.58398">
        <ele>596.15</ele>
        <time>2014-07-19T09:04:31Z</time>
      </trkpt>
      <trkpt lat="45.97384" lon="4.58365">
        <ele>590.39</ele>
        <time>2014-07-19T09:04:46Z</time>
      </trkpt>
      <trkpt lat="45.97473" lon="4.58391">
        <ele>584.14</ele>
        <time>2014-07-19T09:04:58Z</time>
      </trkpt>
      <trkpt lat="45.97567" lon="4.58402">
        <ele>573.08</ele>
        <time>2014-07-19T09:05:11Z</time>
      </trkpt>
      <trkpt lat="45.97658" lon="4.58395">
        <ele>566.83</ele>
        <time>2014-07-19T09:05:23Z</time>
      </trkpt>
      <trkpt lat="45.97742" lon="4.58348">
        <ele>558.66</ele>
        <time>2014-07-19T09:05:38Z</time>
      </trkpt>
      <trkpt lat="45.97817" lon="4.58337">
        <ele>554.82</ele>
        <time>2014-07-19T09:07:55Z</time>
      </trkpt>
      <trkpt lat="45.97896" lon="4.58261">
        <ele>558.18</ele>
        <time>2014-07-19T09:08:24Z</time>
      </trkpt>
      <trkpt lat="45.97985" lon="4.58241">
        <ele>564.91</ele>
        <time>2014-07-19T09:09:00Z</time>
      </trkpt>
      <trkpt lat="45.98011" lon="4.58204">
        <ele>571.64</ele>
        <time>2014-07-19T09:09:36Z</time>
      </trkpt>
      <trkpt lat="45.98097" lon="4.58149">
        <ele>580.77</ele>
        <time>2014-07-19T09:10:44Z</time>
      </trkpt>
      <trkpt lat="45.98194" lon="4.58106">
        <ele>593.75</ele>
        <time>2014-07-19T09:12:32Z</time>
      </trkpt>
      <trkpt lat="45.98276" lon="4.58042">
        <ele>606.73</ele>
        <time>2014-07-19T09:14:24Z</time>
      </trkpt>
      <trkpt lat="45.98326" lon="4.57936">
        <ele>616.34</ele>
        <time>2014-07-19T09:15:56Z</time>
      </trkpt>
      <trkpt lat="45.98384" lon="4.57826">
        <ele>624.03</ele>
        <time>2014-07-19T09:17:02Z</time>
      </trkpt>
      <trkpt lat="45.98466" lon="4.57693">
        <ele>637.01</ele>
        <time>2014-07-19T09:19:01Z</time>
      </trkpt>
      <trkpt lat="45.98515" lon="4.57526">
        <ele>651.91</ele>
        <time>2014-07-19T09:21:41Z</time>
      </trkpt>
      <trkpt lat="45.98543" lon="4.5739">
        <ele>649.03</ele>
        <time>2014-07-19T09:22:08Z</time>
      </trkpt>
      <trkpt lat="45.98608" lon="4.5727">
        <ele>653.83</ele>
        <time>2014-07-19T09:23:17Z</time>
      </trkpt>
      <trkpt lat="45.98757" lon="4.5725">
        <ele>666.81</ele>
        <time>2014-07-19T09:24:47Z</time>
      </trkpt>
      <trkpt lat="45.98711" lon="4.57102">
        <ele>679.79</ele>
        <time>2014-07-19T09:26:50Z</time>
      </trkpt>
      <trkpt lat="45.98679" lon="4.56968">
        <ele>677.87</ele>
        <time>2014-07-19T09:27:09Z</time>
      </trkpt>
      <trkpt lat="45.98705" lon="4.56845">
        <ele>684.6</ele>
        <time>2014-07-19T09:27:48Z</time>
      </trkpt>
      <trkpt lat="45.98738" lon="4.56721">
        <ele>690.84</ele>
        <time>2014-07-19T09:28:27Z</time>
      </trkpt>
      <trkpt lat="45.98816" lon="4.56647">
        <ele>699.98</ele>
        <time>2014-07-19T09:29:11Z</time>
      </trkpt>
      <trkpt lat="45.98865" lon="4.56535">
        <ele>708.15</ele>
        <time>2014-07-19T09:29:53Z</time>
      </trkpt>
      <trkpt lat="45.98922" lon="4.56508">
        <ele>715.36</ele>
        <time>2014-07-19T09:35:46Z</time>
      </trkpt>
      <trkpt lat="45.9901" lon="4.5643">
        <ele>724.01</ele>
        <time>2014-07-19T09:37:00Z</time>
      </trkpt>
      <trkpt lat="45.99106" lon="4.56341">
        <ele>731.22</ele>
        <time>2014-07-19T09:38:10Z</time>
      </trkpt>
      <trkpt lat="45.99215" lon="4.5627">
        <ele>744.2</ele>
        <time>2014-07-19T09:39:39Z</time>
      </trkpt>
      <trkpt lat="45.99304" lon="4.56209">
        <ele>744.68</ele>
        <time>2014-07-19T09:40:16Z</time>
      </trkpt>
      <trkpt lat="45.99397" lon="4.56201">
        <ele>744.2</ele>
        <time>2014-07-19T09:40:37Z</time>
      </trkpt>
      <trkpt lat="45.99492" lon="4.56218">
        <ele>747.08</ele>
        <time>2014-07-19T09:41:11Z</time>
      </trkpt>
      <trkpt lat="45.99592" lon="4.56152">
        <ele>763.9</ele>
        <time>2014-07-19T09:44:25Z</time>
      </trkpt>
      <trkpt lat="45.99667" lon="4.56068">
        <ele>774.96</ele>
        <time>2014-07-19T09:46:05Z</time>
      </trkpt>
      <trkpt lat="45.99726" lon="4.55971">
        <ele>784.57</ele>
        <time>2014-07-19T09:49:50Z</time>
      </trkpt>
      <trkpt lat="45.99769" lon="4.55846">
        <ele>786.5</ele>
        <time>2014-07-19T09:50:29Z</time>
      </trkpt>
      <trkpt lat="45.99837" lon="4.55747">
        <ele>784.57</ele>
        <time>2014-07-19T09:50:49Z</time>
      </trkpt>
      <trkpt lat="45.99899" lon="4.55625">
        <ele>790.82</ele>
        <time>2014-07-19T09:51:35Z</time>
      </trkpt>
      <trkpt lat="45.99981" lon="4.55531">
        <ele>803.8</ele>
        <time>2014-07-19T09:55:59Z</time>
      </trkpt>
      <trkpt lat="46.00063" lon="4.5541">
        <ele>812.45</ele>
        <time>2014-07-19T10:13:37Z</time>
      </trkpt>
      <trkpt lat="46.00108" lon="4.55273">
        <ele>814.37</ele>
        <time>2014-07-19T10:14:08Z</time>
      </trkpt>
      <trkpt lat="46.00171" lon="4.55146">
        <ele>833.12</ele>
        <time>2014-07-19T10:16:18Z</time>
      </trkpt>
      <trkpt lat="46.00235" lon="4.5508">
        <ele>849.94</ele>
        <time>2014-07-19T10:28:53Z</time>
      </trkpt>
      <trkpt lat="46.00298" lon="4.55005">
        <ele>853.31</ele>
        <time>2014-07-19T10:30:35Z</time>
      </trkpt>
      <trkpt lat="46.00374" lon="4.54922">
        <ele>850.9</ele>
        <time>2014-07-19T10:30:57Z</time>
      </trkpt>
      <trkpt lat="46.00445" lon="4.54843">
        <ele>854.75</ele>
        <time>2014-07-19T10:31:37Z</time>
      </trkpt>
      <trkpt lat="46.00534" lon="4.54811">
        <ele>859.08</ele>
        <time>2014-07-19T10:32:16Z</time>
      </trkpt>
      <trkpt lat="46.00617" lon="4.54827">
        <ele>871.09</ele>
        <time>2014-07-19T10:42:41Z</time>
      </trkpt>
      <trkpt lat="46.007" lon="4.54872">
        <ele>868.21</ele>
        <time>2014-07-19T10:43:59Z</time>
      </trkpt>
      <trkpt lat="46.00789" lon="4.54931">
        <ele>861.48</ele>
        <time>2014-07-19T10:44:15Z</time>
      </trkpt>
      <trkpt lat="46.0086" lon="4.55013">
        <ele>864.84</ele>
        <time>2014-07-19T10:44:36Z</time>
      </trkpt>
      <trkpt lat="46.00942" lon="4.55089">
        <ele>847.54</ele>
        <time>2014-07-19T10:45:03Z</time>
      </trkpt>
      <trkpt lat="46.01065" lon="4.55119">
        <ele>834.56</ele>
        <time>2014-07-19T10:45:43Z</time>
      </trkpt>
      <trkpt lat="46.01159" lon="4.5513">
        <ele>843.69</ele>
        <time>2014-07-19T10:46:30Z</time>
      </trkpt>
      <trkpt lat="46.01253" lon="4.55125">
        <ele>841.77</ele>
        <time>2014-07-19T10:46:57Z</time>
      </trkpt>
      <trkpt lat="46.01348" lon="4.55111">
        <ele>836</ele>
        <time>2014-07-19T10:47:09Z</time>
      </trkpt>
      <trkpt lat="46.01429" lon="4.55062">
        <ele>827.35</ele>
        <time>2014-07-19T10:47:23Z</time>
      </trkpt>
      <trkpt lat="46.01511" lon="4.55114">
        <ele>816.78</ele>
        <time>2014-07-19T10:47:53Z</time>
      </trkpt>
      <trkpt lat="46.01612" lon="4.55108">
        <ele>812.45</ele>
        <time>2014-07-19T10:48:12Z</time>
      </trkpt>
      <trkpt lat="46.01713" lon="4.55081">
        <ele>809.57</ele>
        <time>2014-07-19T10:48:28Z</time>
      </trkpt>
      <trkpt lat="46.01815" lon="4.55077">
        <ele>788.42</ele>
        <time>2014-07-19T10:48:57Z</time>
      </trkpt>
      <trkpt lat="46.01929" lon="4.5515">
        <ele>765.83</ele>
        <time>2014-07-19T10:49:21Z</time>
      </trkpt>
      <trkpt lat="46.02054" lon="4.55213">
        <ele>762.46</ele>
        <time>2014-07-19T10:49:34Z</time>
      </trkpt>
      <trkpt lat="46.02128" lon="4.55316">
        <ele>756.21</ele>
        <time>2014-07-19T10:49:46Z</time>
      </trkpt>
      <trkpt lat="46.02199" lon="4.55408">
        <ele>749</ele>
        <time>2014-07-19T10:49:58Z</time>
      </trkpt>
      <trkpt lat="46.02259" lon="4.55509">
        <ele>737.47</ele>
        <time>2014-07-19T10:50:10Z</time>
      </trkpt>
      <trkpt lat="46.02323" lon="4.55607">
        <ele>719.68</ele>
        <time>2014-07-19T10:50:34Z</time>
      </trkpt>
      <trkpt lat="46.02391" lon="4.557">
        <ele>718.24</ele>
        <time>2014-07-19T10:50:50Z</time>
      </trkpt>
      <trkpt lat="46.02436" lon="4.55726">
        <ele>715.36</ele>
        <time>2014-07-19T11:22:27Z</time>
      </trkpt>
      <trkpt lat="46.02499" lon="4.55689">
        <ele>708.63</ele>
        <time>2014-07-19T11:22:54Z</time>
      </trkpt>
      <trkpt lat="46.02591" lon="4.55666">
        <ele>699.5</ele>
        <time>2014-07-19T11:23:05Z</time>
      </trkpt>
      <trkpt lat="46.02678" lon="4.55675">
        <ele>695.17</ele>
        <time>2014-07-19T11:23:26Z</time>
      </trkpt>
      <trkpt lat="46.02589" lon="4.55665">
        <ele>698.05</ele>
        <time>2014-07-19T11:32:47Z</time>
      </trkpt>
      <trkpt lat="46.02498" lon="4.5567">
        <ele>705.75</ele>
        <time>2014-07-19T11:33:38Z</time>
      </trkpt>
      <trkpt lat="46.02407" lon="4.5567">
        <ele>711.51</ele>
        <time>2014-07-19T11:34:26Z</time>
      </trkpt>
      <trkpt lat="46.02321" lon="4.55672">
        <ele>709.11</ele>
        <time>2014-07-19T11:35:28Z</time>
      </trkpt>
      <trkpt lat="46.0223" lon="4.55658">
        <ele>705.75</ele>
        <time>2014-07-19T11:35:51Z</time>
      </trkpt>
      <trkpt lat="46.02145" lon="4.55604">
        <ele>696.13</ele>
        <time>2014-07-19T11:36:13Z</time>
      </trkpt>
      <trkpt lat="46.02095" lon="4.55485">
        <ele>695.17</ele>
        <time>2014-07-19T11:36:30Z</time>
      </trkpt>
      <trkpt lat="46.02007" lon="4.55462">
        <ele>682.19</ele>
        <time>2014-07-19T11:36:45Z</time>
      </trkpt>
      <trkpt lat="46.01917" lon="4.5544">
        <ele>666.81</ele>
        <time>2014-07-19T11:37:06Z</time>
      </trkpt>
      <trkpt lat="46.01865" lon="4.55556">
        <ele>655.76</ele>
        <time>2014-07-19T11:37:21Z</time>
      </trkpt>
      <trkpt lat="46.01787" lon="4.55646">
        <ele>643.74</ele>
        <time>2014-07-19T11:37:39Z</time>
      </trkpt>
      <trkpt lat="46.01678" lon="4.55703">
        <ele>631.24</ele>
        <time>2014-07-19T11:38:03Z</time>
      </trkpt>
      <trkpt lat="46.01604" lon="4.55793">
        <ele>625.96</ele>
        <time>2014-07-19T11:38:19Z</time>
      </trkpt>
      <trkpt lat="46.01561" lon="4.55931">
        <ele>620.67</ele>
        <time>2014-07-19T11:38:34Z</time>
      </trkpt>
      <trkpt lat="46.01488" lon="4.56017">
        <ele>614.42</ele>
        <time>2014-07-19T11:38:50Z</time>
      </trkpt>
      <trkpt lat="46.0141" lon="4.56094">
        <ele>616.82</ele>
        <time>2014-07-19T11:39:06Z</time>
      </trkpt>
      <trkpt lat="46.01343" lon="4.56199">
        <ele>622.59</ele>
        <time>2014-07-19T11:39:38Z</time>
      </trkpt>
      <trkpt lat="46.01281" lon="4.56101">
        <ele>613.94</ele>
        <time>2014-07-19T11:40:21Z</time>
      </trkpt>
      <trkpt lat="46.01197" lon="4.56173">
        <ele>612.98</ele>
        <time>2014-07-19T11:40:41Z</time>
      </trkpt>
      <trkpt lat="46.01106" lon="4.56208">
        <ele>613.46</ele>
        <time>2014-07-19T11:41:07Z</time>
      </trkpt>
      <trkpt lat="46.01021" lon="4.56255">
        <ele>608.17</ele>
        <time>2014-07-19T11:41:25Z</time>
      </trkpt>
      <trkpt lat="46.0094" lon="4.56311">
        <ele>591.83</ele>
        <time>2014-07-19T11:41:51Z</time>
      </trkpt>
      <trkpt lat="46.0085" lon="4.5628">
        <ele>596.64</ele>
        <time>2014-07-19T12:01:36Z</time>
      </trkpt>
      <trkpt lat="46.00796" lon="4.56163">
        <ele>605.77</ele>
        <time>2014-07-19T12:02:48Z</time>
      </trkpt>
      <trkpt lat="46.00742" lon="4.56035">
        <ele>618.26</ele>
        <time>2014-07-19T12:04:14Z</time>
      </trkpt>
      <trkpt lat="46.00683" lon="4.55859">
        <ele>631.24</ele>
        <time>2014-07-19T12:06:00Z</time>
      </trkpt>
      <trkpt lat="46.00617" lon="4.55796">
        <ele>646.14</ele>
        <time>2014-07-19T12:07:38Z</time>
      </trkpt>
      <trkpt lat="46.00529" lon="4.55958">
        <ele>660.08</ele>
        <time>2014-07-19T12:09:25Z</time>
      </trkpt>
      <trkpt lat="46.00385" lon="4.55984">
        <ele>672.1</ele>
        <time>2014-07-19T12:11:06Z</time>
      </trkpt>
      <trkpt lat="46.00278" lon="4.55938">
        <ele>680.27</ele>
        <time>2014-07-19T12:12:21Z</time>
      </trkpt>
      <trkpt lat="46.00158" lon="4.55954">
        <ele>690.36</ele>
        <time>2014-07-19T12:13:49Z</time>
      </trkpt>
      <trkpt lat="46.00045" lon="4.55997">
        <ele>696.13</ele>
        <time>2014-07-19T12:15:07Z</time>
      </trkpt>
      <trkpt lat="45.99976" lon="4.56133">
        <ele>703.82</ele>
        <time>2014-07-19T12:16:39Z</time>
      </trkpt>
      <trkpt lat="45.99998" lon="4.56301">
        <ele>710.55</ele>
        <time>2014-07-19T12:17:57Z</time>
      </trkpt>
      <trkpt lat="45.99962" lon="4.56461">
        <ele>718.72</ele>
        <time>2014-07-19T12:19:35Z</time>
      </trkpt>
      <trkpt lat="45.99963" lon="4.5655">
        <ele>724.49</ele>
        <time>2014-07-19T12:24:35Z</time>
      </trkpt>
      <trkpt lat="45.99862" lon="4.56565">
        <ele>735.07</ele>
        <time>2014-07-19T12:25:51Z</time>
      </trkpt>
      <trkpt lat="45.9984" lon="4.56696">
        <ele>746.12</ele>
        <time>2014-07-19T12:27:36Z</time>
      </trkpt>
      <trkpt lat="45.99843" lon="4.56839">
        <ele>758.62</ele>
        <time>2014-07-19T12:29:45Z</time>
      </trkpt>
      <trkpt lat="45.99872" lon="4.5696">
        <ele>770.63</ele>
        <time>2014-07-19T12:34:43Z</time>
      </trkpt>
      <trkpt lat="45.99786" lon="4.56969">
        <ele>782.17</ele>
        <time>2014-07-19T12:38:37Z</time>
      </trkpt>
      <trkpt lat="45.99676" lon="4.56902">
        <ele>795.15</ele>
        <time>2014-07-19T12:40:35Z</time>
      </trkpt>
      <trkpt lat="45.99566" lon="4.56869">
        <ele>805.24</ele>
        <time>2014-07-19T12:42:39Z</time>
      </trkpt>
      <trkpt lat="45.99508" lon="4.56776">
        <ele>815.34</ele>
        <time>2014-07-19T12:44:36Z</time>
      </trkpt>
      <trkpt lat="45.9946" lon="4.56672">
        <ele>811.49</ele>
        <time>2014-07-19T12:51:50Z</time>
      </trkpt>
      <trkpt lat="45.9942" lon="4.56551">
        <ele>805.72</ele>
        <time>2014-07-19T12:52:07Z</time>
      </trkpt>
      <trkpt lat="45.99366" lon="4.56448">
        <ele>792.26</ele>
        <time>2014-07-19T12:52:33Z</time>
      </trkpt>
      <trkpt lat="45.99316" lon="4.56465">
        <ele>781.21</ele>
        <time>2014-07-19T12:55:13Z</time>
      </trkpt>
      <trkpt lat="45.99224" lon="4.5643">
        <ele>766.79</ele>
        <time>2014-07-19T12:55:36Z</time>
      </trkpt>
      <trkpt lat="45.99135" lon="4.56432">
        <ele>749</ele>
        <time>2014-07-19T12:56:02Z</time>
      </trkpt>
      <trkpt lat="45.99038" lon="4.56502">
        <ele>736.99</ele>
        <time>2014-07-19T12:56:25Z</time>
      </trkpt>
      <trkpt lat="45.98949" lon="4.56533">
        <ele>719.68</ele>
        <time>2014-07-19T12:57:16Z</time>
      </trkpt>
      <trkpt lat="45.98861" lon="4.56537">
        <ele>709.11</ele>
        <time>2014-07-19T13:01:04Z</time>
      </trkpt>
      <trkpt lat="45.98802" lon="4.5664">
        <ele>703.82</ele>
        <time>2014-07-19T13:01:17Z</time>
      </trkpt>
      <trkpt lat="45.98722" lon="4.56711">
        <ele>698.05</ele>
        <time>2014-07-19T13:01:28Z</time>
      </trkpt>
      <trkpt lat="45.98686" lon="4.5684">
        <ele>691.33</ele>
        <time>2014-07-19T13:01:38Z</time>
      </trkpt>
      <trkpt lat="45.98661" lon="4.5697">
        <ele>683.63</ele>
        <time>2014-07-19T13:01:48Z</time>
      </trkpt>
      <trkpt lat="45.98698" lon="4.571">
        <ele>685.56</ele>
        <time>2014-07-19T13:02:03Z</time>
      </trkpt>
      <trkpt lat="45.98756" lon="4.57227">
        <ele>675.46</ele>
        <time>2014-07-19T13:02:44Z</time>
      </trkpt>
      <trkpt lat="45.98676" lon="4.57261">
        <ele>666.33</ele>
        <time>2014-07-19T13:03:10Z</time>
      </trkpt>
      <trkpt lat="45.9858" lon="4.57275">
        <ele>659.12</ele>
        <time>2014-07-19T13:03:31Z</time>
      </trkpt>
      <trkpt lat="45.98523" lon="4.5739">
        <ele>657.68</ele>
        <time>2014-07-19T13:03:48Z</time>
      </trkpt>
      <trkpt lat="45.98504" lon="4.57542">
        <ele>661.04</ele>
        <time>2014-07-19T13:04:11Z</time>
      </trkpt>
      <trkpt lat="45.98468" lon="4.57672">
        <ele>644.7</ele>
        <time>2014-07-19T13:04:37Z</time>
      </trkpt>
      <trkpt lat="45.98411" lon="4.57784">
        <ele>636.05</ele>
        <time>2014-07-19T13:04:54Z</time>
      </trkpt>
      <trkpt lat="45.98348" lon="4.57889">
        <ele>625.96</ele>
        <time>2014-07-19T13:05:12Z</time>
      </trkpt>
      <trkpt lat="45.98311" lon="4.58011">
        <ele>619.23</ele>
        <time>2014-07-19T13:05:29Z</time>
      </trkpt>
      <trkpt lat="45.98238" lon="4.58085">
        <ele>609.13</ele>
        <time>2014-07-19T13:05:49Z</time>
      </trkpt>
      <trkpt lat="45.98152" lon="4.5812">
        <ele>595.67</ele>
        <time>2014-07-19T13:06:27Z</time>
      </trkpt>
      <trkpt lat="45.98067" lon="4.58171">
        <ele>587.02</ele>
        <time>2014-07-19T13:06:44Z</time>
      </trkpt>
      <trkpt lat="45.98034" lon="4.58218">
        <ele>577.89</ele>
        <time>2014-07-19T13:07:31Z</time>
      </trkpt>
      <trkpt lat="45.97955" lon="4.58238">
        <ele>574.04</ele>
        <time>2014-07-19T13:09:51Z</time>
      </trkpt>
      <trkpt lat="45.97871" lon="4.58278">
        <ele>567.32</ele>
        <time>2014-07-19T13:10:00Z</time>
      </trkpt>
      <trkpt lat="45.97807" lon="4.58369">
        <ele>564.91</ele>
        <time>2014-07-19T13:10:12Z</time>
      </trkpt>
      <trkpt lat="45.97753" lon="4.58483">
        <ele>559.62</ele>
        <time>2014-07-19T13:10:25Z</time>
      </trkpt>
      <trkpt lat="45.9769" lon="4.58578">
        <ele>563.47</ele>
        <time>2014-07-19T13:10:40Z</time>
      </trkpt>
      <trkpt lat="45.97641" lon="4.5869">
        <ele>562.03</ele>
        <time>2014-07-19T13:10:54Z</time>
      </trkpt>
      <trkpt lat="45.97562" lon="4.58767">
        <ele>559.14</ele>
        <time>2014-07-19T13:11:07Z</time>
      </trkpt>
      <trkpt lat="45.97475" lon="4.58813">
        <ele>555.3</ele>
        <time>2014-07-19T13:11:18Z</time>
      </trkpt>
      <trkpt lat="45.97432" lon="4.58924">
        <ele>556.26</ele>
        <time>2014-07-19T13:11:29Z</time>
      </trkpt>
      <trkpt lat="45.97403" lon="4.59046">
        <ele>559.14</ele>
        <time>2014-07-19T13:11:41Z</time>
      </trkpt>
      <trkpt lat="45.97353" lon="4.5916">
        <ele>561.07</ele>
        <time>2014-07-19T13:11:57Z</time>
      </trkpt>
      <trkpt lat="45.97302" lon="4.59269">
        <ele>561.55</ele>
        <time>2014-07-19T13:12:13Z</time>
      </trkpt>
      <trkpt lat="45.97267" lon="4.59391">
        <ele>559.62</ele>
        <time>2014-07-19T13:12:27Z</time>
      </trkpt>
      <trkpt lat="45.97176" lon="4.5942">
        <ele>553.86</ele>
        <time>2014-07-19T13:12:38Z</time>
      </trkpt>
      <trkpt lat="45.97083" lon="4.59443">
        <ele>545.2</ele>
        <time>2014-07-19T13:12:46Z</time>
      </trkpt>
      <trkpt lat="45.97019" lon="4.59539">
        <ele>538.48</ele>
        <time>2014-07-19T13:12:53Z</time>
      </trkpt>
      <trkpt lat="45.96994" lon="4.59665">
        <ele>528.86</ele>
        <time>2014-07-19T13:13:01Z</time>
      </trkpt>
      <trkpt lat="45.97043" lon="4.59771">
        <ele>519.73</ele>
        <time>2014-07-19T13:13:10Z</time>
      </trkpt>
      <trkpt lat="45.97061" lon="4.59782">
        <ele>517.33</ele>
        <time>2014-07-19T13:14:56Z</time>
      </trkpt>
      <trkpt lat="45.96998" lon="4.59695">
        <ele>524.06</ele>
        <time>2014-07-19T13:15:47Z</time>
      </trkpt>
      <trkpt lat="45.97028" lon="4.5979">
        <ele>522.61</ele>
        <time>2014-07-19T13:16:13Z</time>
      </trkpt>
      <trkpt lat="45.96986" lon="4.59901">
        <ele>520.21</ele>
        <time>2014-07-19T13:19:03Z</time>
      </trkpt>
      <trkpt lat="45.9693" lon="4.60005">
        <ele>518.77</ele>
        <time>2014-07-19T13:19:25Z</time>
      </trkpt>
      <trkpt lat="45.96868" lon="4.60112">
        <ele>519.25</ele>
        <time>2014-07-19T13:19:45Z</time>
      </trkpt>
      <trkpt lat="45.96798" lon="4.60215">
        <ele>524.06</ele>
        <time>2014-07-19T13:20:19Z</time>
      </trkpt>
      <trkpt lat="45.96738" lon="4.60324">
        <ele>522.13</ele>
        <time>2014-07-19T13:20:39Z</time>
      </trkpt>
      <trkpt lat="45.96678" lon="4.60432">
        <ele>513.48</ele>
        <time>2014-07-19T13:20:56Z</time>
      </trkpt>
      <trkpt lat="45.966" lon="4.60508">
        <ele>497.62</ele>
        <time>2014-07-19T13:21:54Z</time>
      </trkpt>
      <trkpt lat="45.96522" lon="4.60431">
        <ele>490.41</ele>
        <time>2014-07-19T13:22:13Z</time>
      </trkpt>
      <trkpt lat="45.96464" lon="4.60325">
        <ele>478.39</ele>
        <time>2014-07-19T13:22:43Z</time>
      </trkpt>
      <trkpt lat="45.96373" lon="4.60271">
        <ele>474.07</ele>
        <time>2014-07-19T13:23:26Z</time>
      </trkpt>
      <trkpt lat="45.96284" lon="4.60314">
        <ele>464.45</ele>
        <time>2014-07-19T13:23:56Z</time>
      </trkpt>
      <trkpt lat="45.96211" lon="4.60331">
        <ele>446.67</ele>
        <time>2014-07-19T13:24:47Z</time>
      </trkpt>
      <trkpt lat="45.96166" lon="4.60448">
        <ele>438.98</ele>
        <time>2014-07-19T13:27:52Z</time>
      </trkpt>
      <trkpt lat="45.96131" lon="4.60566">
        <ele>435.61</ele>
        <time>2014-07-19T13:29:13Z</time>
      </trkpt>
      <trkpt lat="45.96079" lon="4.60671">
        <ele>439.46</ele>
        <time>2014-07-19T13:29:45Z</time>
      </trkpt>
      <trkpt lat="45.96033" lon="4.60784">
        <ele>441.86</ele>
        <time>2014-07-19T13:30:16Z</time>
      </trkpt>
      <trkpt lat="45.95968" lon="4.60851">
        <ele>444.27</ele>
        <time>2014-07-19T13:33:37Z</time>
      </trkpt>
      <trkpt lat="45.95879" lon="4.60812">
        <ele>447.63</ele>
        <time>2014-07-19T13:34:31Z</time>
      </trkpt>
      <trkpt lat="45.95786" lon="4.60792">
        <ele>448.11</ele>
        <time>2014-07-19T13:34:59Z</time>
      </trkpt>
      <trkpt lat="45.95694" lon="4.60779">
        <ele>447.63</ele>
        <time>2014-07-19T13:35:19Z</time>
      </trkpt>
      <trkpt lat="45.95603" lon="4.6077">
        <ele>447.63</ele>
        <time>2014-07-19T13:35:44Z</time>
      </trkpt>
      <trkpt lat="45.95516" lon="4.60801">
        <ele>449.07</ele>
        <time>2014-07-19T13:36:11Z</time>
      </trkpt>
      <trkpt lat="45.95474" lon="4.6091">
        <ele>447.63</ele>
        <time>2014-07-19T13:37:40Z</time>
      </trkpt>
      <trkpt lat="45.95475" lon="4.61043">
        <ele>446.67</ele>
        <time>2014-07-19T13:38:04Z</time>
      </trkpt>
      <trkpt lat="45.95484" lon="4.61174">
        <ele>445.23</ele>
        <time>2014-07-19T13:38:20Z</time>
      </trkpt>
      <trkpt lat="45.95516" lon="4.61293">
        <ele>444.75</ele>
        <time>2014-07-19T13:38:36Z</time>
      </trkpt>
      <trkpt lat="45.95539" lon="4.61413">
        <ele>450.03</ele>
        <time>2014-07-19T13:40:33Z</time>
      </trkpt>
      <trkpt lat="45.95466" lon="4.61475">
        <ele>454.36</ele>
        <time>2014-07-19T13:44:42Z</time>
      </trkpt>
      <trkpt lat="45.95379" lon="4.61515">
        <ele>455.32</ele>
        <time>2014-07-19T13:45:10Z</time>
      </trkpt>
      <trkpt lat="45.95287" lon="4.61544">
        <ele>456.76</ele>
        <time>2014-07-19T13:45:33Z</time>
      </trkpt>
      <trkpt lat="45.95197" lon="4.61583">
        <ele>457.24</ele>
        <time>2014-07-19T13:45:59Z</time>
      </trkpt>
      <trkpt lat="45.95104" lon="4.61613">
        <ele>463.49</ele>
        <time>2014-07-19T13:46:37Z</time>
      </trkpt>
      <trkpt lat="45.94985" lon="4.61661">
        <ele>478.39</ele>
        <time>2014-07-19T13:48:10Z</time>
      </trkpt>
      <trkpt lat="45.94877" lon="4.61628">
        <ele>482.72</ele>
        <time>2014-07-19T13:49:07Z</time>
      </trkpt>
      <trkpt lat="45.9481" lon="4.61613">
        <ele>482.24</ele>
        <time>2014-07-19T13:50:56Z</time>
      </trkpt>
      <trkpt lat="45.94717" lon="4.61645">
        <ele>481.76</ele>
        <time>2014-07-19T13:51:21Z</time>
      </trkpt>
      <trkpt lat="45.94619" lon="4.61678">
        <ele>482.24</ele>
        <time>2014-07-19T13:51:46Z</time>
      </trkpt>
      <trkpt lat="45.94528" lon="4.61721">
        <ele>487.53</ele>
        <time>2014-07-19T13:52:24Z</time>
      </trkpt>
      <trkpt lat="45.94431" lon="4.61742">
        <ele>488.49</ele>
        <time>2014-07-19T13:53:16Z</time>
      </trkpt>
      <trkpt lat="45.94338" lon="4.61746">
        <ele>481.28</ele>
        <time>2014-07-19T13:53:39Z</time>
      </trkpt>
      <trkpt lat="45.94272" lon="4.61799">
        <ele>472.14</ele>
        <time>2014-07-19T13:53:56Z</time>
      </trkpt>
      <trkpt lat="45.9418" lon="4.61785">
        <ele>471.66</ele>
        <time>2014-07-19T13:54:19Z</time>
      </trkpt>
      <trkpt lat="45.94101" lon="4.61804">
        <ele>468.78</ele>
        <time>2014-07-19T13:54:43Z</time>
      </trkpt>
      <trkpt lat="45.94029" lon="4.61726">
        <ele>471.66</ele>
        <time>2014-07-19T13:55:17Z</time>
      </trkpt>
      <trkpt lat="45.93973" lon="4.61624">
        <ele>463.01</ele>
        <time>2014-07-19T13:55:40Z</time>
      </trkpt>
    </trkseg>
  </trk>
</gpx>